Time;durP1;ratioP1;P1;durP2;ratioP2;P2;SDS_P1;SDS_P2;PMS_P1;PMS_P2;Temp;Humidity;BMP_temperature;BMP_pressure;BME280_temperature;BME280_humidity;BME280_pressure;Samples;Min_cycle;Max_cycle;Signal;HPM_P1;HPM_P2
2023/12/31 00:02:15;;;;;;;107.45;62.90;;;;;;;-142.57;100.00;56980.22;5085988;28;20051;-88
2023/12/31 00:04:40;;;;;;;107.30;62.10;;;;;;;-142.57;100.00;56949.91;5092367;28;20028;-89
2023/12/31 00:07:06;;;;;;;110.28;62.47;;;;;;;-142.57;100.00;56986.28;5082275;28;20130;-92
2023/12/31 00:09:31;;;;;;;108.45;63.28;;;;;;;-142.57;100.00;56996.41;5052526;28;20024;-89
2023/12/31 00:11:57;;;;;;;106.22;62.72;;;;;;;-142.57;100.00;56996.41;5082071;28;20036;-87
2023/12/31 00:14:22;;;;;;;101.43;60.22;;;;;;;-142.57;100.00;57010.53;5086261;28;20031;-89
2023/12/31 00:16:49;;;;;;;106.47;60.47;;;;;;;-142.57;100.00;57026.72;5088335;28;20040;-90
2023/12/31 00:19:15;;;;;;;106.85;59.65;;;;;;;-142.57;100.00;56917.56;5086066;28;20035;-87
2023/12/31 00:21:43;;;;;;;107.55;61.47;;;;;;;-142.57;100.00;56994.38;5072107;28;20036;-89
2023/12/31 00:24:10;;;;;;;107.13;60.00;;;;;;;-142.57;100.00;56949.91;5075846;28;20103;-89
2023/12/31 00:26:35;;;;;;;96.40;58.47;;;;;;;-142.57;100.00;56984.28;5039403;28;20397;-90
2023/12/31 00:29:07;;;;;;;100.47;59.67;;;;;;;-142.57;100.00;56996.41;5081171;28;20040;-87
2023/12/31 00:31:33;;;;;;;103.82;59.20;;;;;;;-142.57;100.00;56968.09;5081515;28;20394;-88
2023/12/31 00:33:59;;;;;;;103.72;62.15;;;;;;;-142.57;100.00;57002.47;5065407;28;20047;-87
2023/12/31 00:36:25;;;;;;;99.53;58.28;;;;;;;-142.57;100.00;56958.00;5082683;28;20032;-86
2023/12/31 00:38:51;;;;;;;100.70;59.88;;;;;;;-142.57;100.00;57004.47;5086513;28;20100;-87
2023/12/31 00:41:16;;;;;;;101.88;60.85;;;;;;;-142.57;100.00;56974.16;5079905;28;20067;-86
2023/12/31 00:43:42;;;;;;;105.53;62.38;;;;;;;-142.57;100.00;56949.91;5094941;28;20464;-91
2023/12/31 00:46:07;;;;;;;103.57;59.85;;;;;;;-142.57;100.00;56966.09;5072309;28;20008;-88
2023/12/31 00:48:33;;;;;;;102.93;61.10;;;;;;;-142.57;100.00;56871.09;5113849;28;20103;-87
2023/12/31 00:51:01;;;;;;;104.18;60.67;;;;;;;-142.57;100.00;56911.50;5114156;28;20088;-88
2023/12/31 00:53:48;;;;;;;100.85;60.97;;;;;;;-142.57;100.00;56943.84;5098869;28;20052;-89
2023/12/31 00:56:14;;;;;;;97.18;59.75;;;;;;;-142.57;100.00;56929.69;5095460;28;20041;-87
2023/12/31 00:58:39;;;;;;;99.22;58.75;;;;;;;-142.57;100.00;56970.13;5110373;28;20023;-88
2023/12/31 01:01:05;;;;;;;101.93;58.92;;;;;;;-142.57;100.00;56921.63;5076932;28;20036;-90
2023/12/31 01:03:30;;;;;;;102.30;60.65;;;;;;;-142.57;100.00;56962.03;5071482;28;20090;-87
2023/12/31 01:06:07;;;;;;;103.95;59.38;;;;;;;-142.57;100.00;57010.53;5096115;28;20565;-91
2023/12/31 01:08:34;;;;;;;102.13;59.90;;;;;;;-142.57;100.00;57057.03;5095928;28;20386;-90
2023/12/31 01:10:59;;;;;;;105.97;62.22;;;;;;;-142.57;100.00;57038.84;5101539;28;20043;-89
2023/12/31 01:13:25;;;;;;;115.78;65.60;;;;;;;-142.57;100.00;56953.94;5086411;28;20100;-91
2023/12/31 01:15:50;;;;;;;112.55;65.22;;;;;;;-142.57;100.00;56974.16;5080131;28;20040;-90
2023/12/31 01:18:18;;;;;;;111.78;63.05;;;;;;;-142.57;100.00;57010.53;5074746;28;20040;-91
2023/12/31 01:20:44;;;;;;;113.68;67.13;;;;;;;-142.57;100.00;57022.69;5087346;28;20041;-89
2023/12/31 01:23:09;;;;;;;110.03;65.05;;;;;;;-142.57;100.00;57006.50;5103014;28;20023;-90
2023/12/31 01:25:35;;;;;;;114.43;66.95;;;;;;;-142.57;100.00;57059.06;5087176;28;20028;-89
2023/12/31 01:28:01;;;;;;;119.88;67.30;;;;;;;-142.57;100.00;57069.16;5081493;28;20450;-89
2023/12/31 01:30:26;;;;;;;112.65;65.18;;;;;;;-142.57;100.00;57184.38;5081240;28;20028;-89
2023/12/31 01:32:52;;;;;;;114.20;67.32;;;;;;;-142.57;100.00;57196.50;5084031;28;20451;-88
2023/12/31 01:35:18;;;;;;;115.07;65.07;;;;;;;-142.57;100.00;57156.06;5072918;28;20433;-88
2023/12/31 01:37:45;;;;;;;119.32;67.75;;;;;;;-142.57;100.00;57087.34;5072304;28;20500;-88
2023/12/31 01:40:11;;;;;;;114.85;64.40;;;;;;;-142.57;100.00;57075.22;5082834;28;20036;-88
2023/12/31 01:42:37;;;;;;;112.38;65.75;;;;;;;-142.57;100.00;57065.13;5092481;28;20047;-88
2023/12/31 01:45:04;;;;;;;112.93;64.22;;;;;;;-142.57;100.00;57010.53;5053928;28;20025;-86
2023/12/31 01:47:33;;;;;;;114.97;67.43;;;;;;;-142.57;100.00;56996.41;5015666;28;20842;-87
2023/12/31 01:50:00;;;;;;;112.90;65.95;;;;;;;-142.57;100.00;57036.81;5041872;28;20036;-88
2023/12/31 01:52:26;;;;;;;114.65;66.03;;;;;;;-142.57;100.00;56974.16;5087199;28;20035;-88
2023/12/31 01:54:53;;;;;;;110.15;65.32;;;;;;;-142.57;100.00;56988.31;5083709;28;20028;-86
2023/12/31 01:57:27;;;;;;;113.22;64.30;;;;;;;-142.57;100.00;56968.09;5056218;28;20504;-88
2023/12/31 01:59:55;;;;;;;112.43;64.22;;;;;;;-142.57;100.00;57020.66;5069829;28;20056;-89
2023/12/31 02:02:22;;;;;;;109.75;64.90;;;;;;;-142.57;100.00;57083.31;5074647;28;20085;-86
2023/12/31 02:04:48;;;;;;;121.63;67.72;;;;;;;-142.57;100.00;56984.28;5070848;28;20041;-89
2023/12/31 02:07:14;;;;;;;115.32;65.97;;;;;;;-142.57;100.00;57002.47;5066442;28;20036;-87
2023/12/31 02:09:40;;;;;;;117.88;67.53;;;;;;;-142.57;100.00;57014.59;5078707;28;20062;-88
2023/12/31 02:12:07;;;;;;;116.18;65.00;;;;;;;-142.57;100.00;57016.59;5090768;28;20013;-87
2023/12/31 02:14:33;;;;;;;112.10;64.88;;;;;;;-142.57;100.00;57050.97;5075029;28;20028;-90
2023/12/31 02:16:58;;;;;;;116.93;65.05;;;;;;;-142.57;100.00;56990.34;5091052;28;20123;-88
2023/12/31 02:19:24;;;;;;;115.20;64.75;;;;;;;-142.57;100.00;56980.22;5083130;28;20032;-88
2023/12/31 02:21:50;;;;;;;109.22;66.22;;;;;;;-142.57;100.00;56958.00;5078837;28;20043;-87
2023/12/31 02:24:19;;;;;;;120.40;67.60;;;;;;;-142.57;100.00;56960.00;5092417;28;20020;-87
2023/12/31 02:26:44;;;;;;;116.53;67.75;;;;;;;-142.57;100.00;56978.22;5081977;28;20052;-85
2023/12/31 02:29:10;;;;;;;117.60;67.07;;;;;;;-142.57;100.00;57028.75;5076292;28;20107;-86
2023/12/31 02:31:35;;;;;;;117.32;67.38;;;;;;;-142.57;100.00;57170.22;5084214;28;20178;-85
2023/12/31 02:34:01;;;;;;;120.35;67.55;;;;;;;-142.57;100.00;57123.72;5081707;28;20040;-87
2023/12/31 02:36:27;;;;;;;122.38;69.80;;;;;;;-142.57;100.00;57135.88;5087415;28;20385;-87
2023/12/31 02:38:52;;;;;;;119.15;66.53;;;;;;;-142.57;100.00;57042.88;5099490;28;20031;-86
2023/12/31 02:41:18;;;;;;;117.80;67.25;;;;;;;-142.57;100.00;57042.88;5103519;28;20036;-87
2023/12/31 02:43:45;;;;;;;116.00;65.05;;;;;;;-142.57;100.00;57123.72;5087698;28;20073;-88
2023/12/31 02:46:10;;;;;;;113.70;65.05;;;;;;;-142.57;100.00;57105.53;5094222;28;20020;-88
2023/12/31 02:48:36;;;;;;;107.88;61.63;;;;;;;-142.57;100.00;57036.81;5098672;28;20082;-89
2023/12/31 02:51:02;;;;;;;117.43;65.28;;;;;;;-142.57;100.00;57020.66;5093040;28;20397;-89
2023/12/31 02:53:28;;;;;;;118.90;69.38;;;;;;;-142.57;100.00;57071.19;5080626;28;20028;-90
2023/12/31 02:55:53;;;;;;;113.90;66.22;;;;;;;-142.57;100.00;57141.94;5081680;28;20050;-90
2023/12/31 02:58:19;;;;;;;114.57;66.00;;;;;;;-142.57;100.00;57172.25;5096048;28;20060;-89
2023/12/31 03:00:44;;;;;;;113.05;66.25;;;;;;;-142.57;100.00;57148.00;5082462;28;20507;-88
2023/12/31 03:03:10;;;;;;;120.47;67.25;;;;;;;-142.57;100.00;57150.00;5096949;28;20059;-90
2023/12/31 03:05:36;;;;;;;121.93;68.13;;;;;;;-142.57;100.00;57107.56;5087502;28;20024;-89
2023/12/31 03:08:01;;;;;;;114.53;66.45;;;;;;;-142.57;100.00;57196.50;5097617;28;20044;-86
2023/12/31 03:10:27;;;;;;;114.75;66.55;;;;;;;-142.57;100.00;57204.59;5087370;28;20138;-88
2023/12/31 03:12:53;;;;;;;119.55;67.47;;;;;;;-142.57;100.00;57301.59;5075681;28;20112;-87
2023/12/31 03:15:19;;;;;;;116.20;66.55;;;;;;;-142.57;100.00;57269.28;5077352;28;20094;-89
2023/12/31 03:17:45;;;;;;;119.75;67.03;;;;;;;-142.57;100.00;57204.59;5090073;28;20120;-89
2023/12/31 03:20:11;;;;;;;112.03;65.35;;;;;;;-142.57;100.00;57240.97;5081249;28;20171;-88
2023/12/31 03:22:37;;;;;;;116.55;66.70;;;;;;;-142.57;100.00;57212.66;5075646;28;20036;-88
2023/12/31 03:25:03;;;;;;;109.22;63.75;;;;;;;-142.57;100.00;57200.53;5092505;28;20024;-89
2023/12/31 03:27:28;;;;;;;110.88;64.90;;;;;;;-142.57;100.00;57176.28;5091753;28;20036;-90
2023/12/31 03:29:54;;;;;;;110.18;63.75;;;;;;;-142.57;100.00;57164.16;5089698;28;20043;-87
2023/12/31 03:32:19;;;;;;;110.28;63.70;;;;;;;-142.57;100.00;57200.53;5089846;28;20032;-89
2023/12/31 03:34:45;;;;;;;96.60;59.63;;;;;;;-142.57;100.00;57188.41;5086886;28;20468;-88
2023/12/31 03:37:10;;;;;;;96.07;58.75;;;;;;;-142.57;100.00;57148.00;5076860;28;20116;-87
2023/12/31 03:39:36;;;;;;;93.82;58.20;;;;;;;-142.57;100.00;57133.84;5070798;28;20028;-87
2023/12/31 03:42:01;;;;;;;94.90;59.25;;;;;;;-142.57;100.00;57105.53;5078235;28;20056;-90
2023/12/31 03:44:27;;;;;;;93.57;55.83;;;;;;;-142.57;100.00;57103.53;5097571;28;20524;-88
2023/12/31 03:46:53;;;;;;;81.40;53.92;;;;;;;-142.57;100.00;57075.22;5110983;28;20049;-90
2023/12/31 03:49:18;;;;;;;92.00;57.47;;;;;;;-142.57;100.00;57141.94;5085554;28;20137;-91
2023/12/31 03:51:44;;;;;;;90.03;56.17;;;;;;;-142.57;100.00;57224.78;5035829;28;20103;-88
2023/12/31 03:54:09;;;;;;;88.70;56.75;;;;;;;-142.57;100.00;57293.53;5069003;28;20027;-90
2023/12/31 03:56:35;;;;;;;84.35;54.53;;;;;;;-142.57;100.00;57311.72;5075319;28;20122;-89
2023/12/31 03:59:01;;;;;;;87.47;54.70;;;;;;;-142.57;100.00;57253.09;5079307;28;20056;-88
2023/12/31 04:01:26;;;;;;;82.75;55.08;;;;;;;-142.57;100.00;57178.31;5076754;28;20405;-90
2023/12/31 04:03:53;;;;;;;79.60;51.38;;;;;;;-142.57;100.00;57174.25;5099813;28;20169;-90
2023/12/31 04:06:19;;;;;;;75.05;50.53;;;;;;;-142.57;100.00;57198.53;5106038;28;20443;-87
2023/12/31 04:08:48;;;;;;;75.00;50.00;;;;;;;-142.57;100.00;57119.69;5105506;28;20025;-87
2023/12/31 04:11:13;;;;;;;75.55;49.15;;;;;;;-142.57;100.00;57127.78;5092520;28;20056;-88
2023/12/31 04:13:43;;;;;;;74.95;50.05;;;;;;;-142.57;100.00;57143.94;5082869;28;20048;-86
2023/12/31 04:16:09;;;;;;;77.30;51.55;;;;;;;-142.57;100.00;57131.81;5081450;28;20386;-89
2023/12/31 04:18:35;;;;;;;76.32;51.03;;;;;;;-142.57;100.00;57139.91;5096451;28;20031;-92
2023/12/31 04:21:01;;;;;;;82.88;53.10;;;;;;;-142.57;100.00;57164.16;5068754;28;20041;-90
2023/12/31 04:23:26;;;;;;;81.57;52.05;;;;;;;-142.57;100.00;57160.13;5095369;28;20534;-88
2023/12/31 04:25:52;;;;;;;79.57;52.05;;;;;;;-142.57;100.00;57184.38;5077418;28;20054;-88
2023/12/31 04:28:18;;;;;;;78.80;51.38;;;;;;;-142.57;100.00;57208.63;5082808;28;20433;-91
2023/12/31 04:30:44;;;;;;;81.03;51.75;;;;;;;-142.57;100.00;57172.25;5074611;28;20058;-87
2023/12/31 04:33:09;;;;;;;74.97;50.47;;;;;;;-142.57;100.00;57143.94;5077936;28;20107;-87
2023/12/31 04:35:35;;;;;;;78.90;51.65;;;;;;;-142.57;100.00;57139.91;5071810;28;20033;-88
2023/12/31 04:38:00;;;;;;;78.82;50.65;;;;;;;-142.57;100.00;57139.91;5072470;28;20461;-87
2023/12/31 04:40:26;;;;;;;70.88;48.30;;;;;;;-142.57;100.00;57172.25;5073978;28;20051;-88
2023/12/31 04:42:51;;;;;;;73.93;49.97;;;;;;;-142.57;100.00;57188.41;5043525;28;20097;-88
2023/12/31 04:45:17;;;;;;;66.88;46.97;;;;;;;-142.57;100.00;57107.56;5081338;28;20035;-87
2023/12/31 04:47:43;;;;;;;70.45;47.80;;;;;;;-142.57;100.00;57109.59;5089925;28;20043;-86
2023/12/31 04:50:08;;;;;;;70.65;48.63;;;;;;;-142.57;100.00;57111.59;5072327;28;20036;-86
2023/12/31 04:52:34;;;;;;;65.30;46.70;;;;;;;-142.57;100.00;57050.97;5081296;28;20035;-86
2023/12/31 04:55:00;;;;;;;67.55;45.85;;;;;;;-142.57;100.00;56990.34;5083910;28;20031;-86
2023/12/31 04:57:25;;;;;;;68.78;46.53;;;;;;;-142.57;100.00;56996.41;5079292;28;20054;-89
2023/12/31 04:59:54;;;;;;;72.35;46.70;;;;;;;-142.57;100.00;57038.84;5093742;28;20028;-89
2023/12/31 05:02:19;;;;;;;69.97;48.10;;;;;;;-142.57;100.00;57040.88;5086916;28;20039;-88
2023/12/31 05:04:45;;;;;;;65.80;45.83;;;;;;;-142.57;100.00;57129.78;5091293;28;20064;-88
2023/12/31 05:07:11;;;;;;;67.57;45.95;;;;;;;-142.57;100.00;57164.16;5075329;28;20094;-87
2023/12/31 05:09:37;;;;;;;68.97;47.08;;;;;;;-142.57;100.00;57176.28;5067260;28;20060;-87
2023/12/31 05:12:03;;;;;;;129.32;48.33;;;;;;;-142.57;100.00;57139.91;5077666;28;20025;-88
2023/12/31 05:14:28;;;;;;;71.68;46.55;;;;;;;-142.57;100.00;57123.72;5092913;28;20051;-87
2023/12/31 05:16:55;;;;;;;66.00;46.22;;;;;;;-142.57;100.00;57166.19;5106646;28;20079;-86
2023/12/31 05:19:20;;;;;;;66.47;45.53;;;;;;;-142.57;100.00;57172.25;5102523;28;20024;-87
2023/12/31 05:21:46;;;;;;;67.10;46.92;;;;;;;-142.57;100.00;57265.22;5099471;28;20040;-85
2023/12/31 05:24:11;;;;;;;69.50;47.35;;;;;;;-142.57;100.00;57273.31;5093363;28;20036;-85
2023/12/31 05:26:37;;;;;;;66.05;45.97;;;;;;;-142.57;100.00;57238.94;5097433;28;20035;-87
2023/12/31 05:29:03;;;;;;;68.53;45.35;;;;;;;-142.57;100.00;57249.06;5078444;28;20542;-89
2023/12/31 05:31:29;;;;;;;66.75;45.97;;;;;;;-142.57;100.00;57291.50;5075518;28;20108;-88
2023/12/31 05:33:55;;;;;;;58.13;42.58;;;;;;;-142.57;100.00;57232.88;5075950;28;20043;-86
2023/12/31 05:36:23;;;;;;;60.30;42.10;;;;;;;-142.57;100.00;57162.13;5083535;28;20473;-88
2023/12/31 05:38:48;;;;;;;68.30;45.30;;;;;;;-142.57;100.00;57178.31;5091276;28;20030;-92
2023/12/31 05:41:14;;;;;;;61.38;42.55;;;;;;;-142.57;100.00;57184.38;5115233;28;20515;-89
2023/12/31 05:43:40;;;;;;;63.17;43.38;;;;;;;-142.57;100.00;57188.41;5092502;28;20033;-85
2023/12/31 05:46:08;;;;;;;82.53;45.50;;;;;;;-142.57;100.00;57277.34;5057629;28;20043;-87
2023/12/31 05:48:35;;;;;;;67.63;45.83;;;;;;;-142.57;100.00;57261.19;5076143;28;20040;-84
2023/12/31 05:51:01;;;;;;;67.82;45.38;;;;;;;-142.57;100.00;57327.88;5079309;28;20037;-88
2023/12/31 05:53:27;;;;;;;65.68;45.28;;;;;;;-142.57;100.00;57311.72;5095034;28;20027;-88
2023/12/31 05:55:52;;;;;;;62.83;44.85;;;;;;;-142.57;100.00;57406.72;5105645;28;20015;-90
2023/12/31 05:58:18;;;;;;;66.35;44.80;;;;;;;-142.57;100.00;57255.13;5095231;28;20087;-88
2023/12/31 06:00:43;;;;;;;82.15;46.78;;;;;;;-142.57;100.00;57445.13;5100512;28;20029;-88
2023/12/31 06:03:09;;;;;;;76.60;46.30;;;;;;;-142.57;100.00;57451.19;5097952;28;20063;-85
2023/12/31 06:05:35;;;;;;;89.05;47.42;;;;;;;-142.57;100.00;57350.13;5097130;28;20020;-87
2023/12/31 06:08:01;;;;;;;71.65;48.45;;;;;;;-142.57;100.00;57319.81;5097322;28;20124;-85
2023/12/31 06:10:26;;;;;;;89.18;47.78;;;;;;;-142.57;100.00;57340.00;5097502;28;20025;-88
2023/12/31 06:12:52;;;;;;;68.85;46.50;;;;;;;-142.57;100.00;57263.19;5088643;28;20015;-86
2023/12/31 06:15:17;;;;;;;75.88;47.92;;;;;;;-142.57;100.00;57204.59;5099728;28;20074;-84
2023/12/31 06:17:43;;;;;;;78.75;48.40;;;;;;;-142.57;100.00;57394.59;5115826;28;20024;-86
2023/12/31 06:20:09;;;;;;;178.27;49.60;;;;;;;-142.57;100.00;57374.38;5117063;28;20096;-86
2023/12/31 06:22:35;;;;;;;193.55;49.92;;;;;;;-142.57;100.00;57420.88;5101243;28;20016;-88
2023/12/31 06:25:00;;;;;;;218.63;53.05;;;;;;;-142.57;100.00;57560.34;5086885;28;20058;-91
2023/12/31 06:27:26;;;;;;;250.77;55.00;;;;;;;-142.57;100.00;57843.38;5082164;28;20058;-88
2023/12/31 06:29:52;;;;;;;123.13;55.83;;;;;;;-142.57;100.00;58114.28;5087298;28;20038;-84
2023/12/31 06:32:18;;;;;;;89.85;52.97;;;;;;;-142.57;100.00;58425.63;5083978;28;20041;-89
2023/12/31 06:34:43;;;;;;;159.00;54.22;;;;;;;-142.57;100.00;58451.91;5108972;28;20036;-86
2023/12/31 06:37:09;;;;;;;131.48;55.55;;;;;;;-142.57;100.00;58326.56;5099626;28;20035;-85
2023/12/31 06:39:34;;;;;;;141.95;56.90;;;;;;;-142.57;100.00;58235.56;5101819;28;20037;-87
2023/12/31 06:42:03;;;;;;;181.02;55.78;;;;;;;-142.57;100.00;58085.97;5106772;28;20165;-89
2023/12/31 06:44:30;;;;;;;162.05;57.45;;;;;;;-142.57;100.00;58189.06;5111316;28;20036;-89
2023/12/31 06:46:57;;;;;;;109.22;55.70;;;;;;;-142.57;100.00;58081.94;5109865;28;20017;-86
2023/12/31 06:49:22;;;;;;;111.30;57.17;;;;;;;-142.57;100.00;58239.63;5105734;28;20019;-85
2023/12/31 06:51:48;;;;;;;103.22;58.10;;;;;;;-142.57;100.00;58292.19;5116869;28;20511;-87
2023/12/31 06:54:14;;;;;;;106.97;57.20;;;;;;;-142.57;100.00;58393.28;5101012;28;20534;-87
2023/12/31 06:56:39;;;;;;;101.65;55.95;;;;;;;-142.57;100.00;58292.19;5102871;28;20043;-86
2023/12/31 06:59:06;;;;;;;114.97;57.10;;;;;;;-142.57;100.00;58096.06;5109586;28;20058;-87
2023/12/31 07:01:34;;;;;;;128.27;55.92;;;;;;;-142.57;100.00;58043.50;5109950;28;20037;-86
2023/12/31 07:04:03;;;;;;;168.88;55.47;;;;;;;-142.57;100.00;58114.28;5113868;28;20074;-85
2023/12/31 07:06:29;;;;;;;131.85;58.45;;;;;;;-142.57;100.00;58079.91;5094659;28;20031;-84
2023/12/31 07:08:54;;;;;;;124.15;56.85;;;;;;;-142.57;100.00;58069.78;5099627;28;20096;-87
2023/12/31 07:11:20;;;;;;;178.20;57.08;;;;;;;-142.57;100.00;58178.97;5088299;28;20142;-85
2023/12/31 07:13:45;;;;;;;126.47;59.30;;;;;;;-142.57;100.00;58274.00;5075955;28;20059;-89
2023/12/31 07:16:13;;;;;;;157.35;58.95;;;;;;;-142.57;100.00;58243.66;5076938;28;20024;-85
2023/12/31 07:18:39;;;;;;;172.75;57.65;;;;;;;-142.57;100.00;58257.81;5078927;28;20020;-83
2023/12/31 07:21:05;;;;;;;117.68;58.55;;;;;;;-142.57;100.00;58292.19;5086948;28;20413;-85
2023/12/31 07:23:30;;;;;;;287.63;58.45;;;;;;;-142.57;100.00;58225.47;5089165;28;20029;-84
2023/12/31 07:25:56;;;;;;;221.50;57.50;;;;;;;-142.57;100.00;58352.84;5074533;28;20043;-85
2023/12/31 07:28:22;;;;;;;131.07;57.22;;;;;;;-142.57;100.00;58371.03;5086820;28;20419;-84
2023/12/31 07:30:47;;;;;;;143.68;57.88;;;;;;;-142.57;100.00;58464.06;5086845;28;20029;-85
2023/12/31 07:33:13;;;;;;;284.60;61.10;;;;;;;-142.57;100.00;58358.91;5083070;28;20028;-84
2023/12/31 07:35:42;;;;;;;146.02;57.63;;;;;;;-142.57;100.00;58474.16;5095815;28;20494;-86
2023/12/31 07:38:10;;;;;;;116.30;58.33;;;;;;;-142.57;100.00;58385.19;5071223;28;20378;-87
2023/12/31 07:40:39;;;;;;;188.13;56.63;;;;;;;-142.57;100.00;58344.75;5094454;28;20036;-84
2023/12/31 07:43:04;;;;;;;110.25;54.90;;;;;;;-142.57;100.00;58239.63;5093449;28;20028;-85
2023/12/31 07:45:31;;;;;;;109.20;58.38;;;;;;;-142.57;100.00;58241.66;5097157;28;20039;-86
2023/12/31 07:47:56;;;;;;;161.00;56.65;;;;;;;-142.57;100.00;58239.63;5087884;28;20104;-85
2023/12/31 07:50:22;;;;;;;107.57;54.78;;;;;;;-142.57;100.00;58116.28;5077594;28;20040;-86
2023/12/31 07:52:48;;;;;;;126.93;56.53;;;;;;;-142.57;100.00;58106.19;5054266;28;20043;-84
2023/12/31 07:55:13;;;;;;;163.77;58.78;;;;;;;-142.57;100.00;58039.47;5023671;28;20024;-83
2023/12/31 07:57:39;;;;;;;192.77;59.22;;;;;;;-142.57;100.00;58195.16;5019726;28;20040;-82
2023/12/31 08:00:08;;;;;;;288.20;62.00;;;;;;;-142.57;100.00;58300.28;5017896;28;20032;-86
2023/12/31 08:02:37;;;;;;;151.48;63.95;;;;;;;-142.57;100.00;58823.97;5034637;28;20044;-86
2023/12/31 08:05:03;;;;;;;159.65;65.28;;;;;;;-142.57;100.00;58985.75;5078116;28;20121;-83
2023/12/31 08:07:29;;;;;;;156.27;64.75;;;;;;;-142.57;100.00;58866.44;5093367;28;20136;-86
2023/12/31 08:09:55;;;;;;;150.80;63.28;;;;;;;-142.57;100.00;58817.91;5076909;28;20041;-88
2023/12/31 08:12:21;;;;;;;162.07;65.13;;;;;;;-142.57;100.00;58609.63;5077312;28;20036;-83
2023/12/31 08:14:47;;;;;;;154.15;64.30;;;;;;;-142.57;100.00;58664.22;5079949;28;20035;-86
2023/12/31 08:17:13;;;;;;;201.07;63.35;;;;;;;-142.57;100.00;58516.63;5094249;28;20077;-86
2023/12/31 08:19:38;;;;;;;272.10;69.70;;;;;;;-142.57;100.00;58532.78;5078364;28;20082;-84
2023/12/31 08:22:04;;;;;;;250.60;69.07;;;;;;;-142.57;100.00;58617.72;5082322;28;20048;-84
2023/12/31 08:24:29;;;;;;;152.63;67.90;;;;;;;-142.57;100.00;58696.59;5082123;28;20040;-85
2023/12/31 08:26:55;;;;;;;198.68;68.25;;;;;;;-142.57;100.00;58641.97;5095050;28;20052;-86
2023/12/31 08:29:21;;;;;;;182.70;68.40;;;;;;;-142.57;100.00;58641.97;5086005;28;20032;-85
2023/12/31 08:31:50;;;;;;;181.07;69.55;;;;;;;-142.57;100.00;58528.75;5068537;28;20116;-86
2023/12/31 08:34:15;;;;;;;272.10;71.13;;;;;;;-142.57;100.00;58433.72;5094769;28;20082;-84
2023/12/31 08:36:41;;;;;;;182.93;67.75;;;;;;;-142.57;100.00;58399.34;5077287;28;20040;-85
2023/12/31 08:39:06;;;;;;;279.48;68.38;;;;;;;-142.57;100.00;58421.59;5070723;28;20055;-84
2023/12/31 08:41:32;;;;;;;264.83;70.32;;;;;;;-142.57;100.00;58466.06;5079570;28;20076;-84
2023/12/31 08:43:58;;;;;;;243.80;72.13;;;;;;;-142.57;100.00;58474.16;5082457;28;20142;-86
2023/12/31 08:46:23;;;;;;;250.98;76.53;;;;;;;-142.57;100.00;58399.34;5077414;28;20465;-86
2023/12/31 08:48:49;;;;;;;149.70;69.88;;;;;;;-142.57;100.00;58312.41;5044210;28;20044;-85
2023/12/31 08:51:14;;;;;;;186.15;76.43;;;;;;;-142.57;100.00;58296.22;5071627;28;20031;-88
2023/12/31 08:53:40;;;;;;;159.65;72.95;;;;;;;-142.57;100.00;58247.72;5080706;28;20039;-86
2023/12/31 08:56:06;;;;;;;203.57;74.75;;;;;;;-142.57;100.00;58053.63;5077950;28;20035;-86
2023/12/31 08:58:31;;;;;;;407.75;78.43;;;;;;;-142.57;100.00;58039.47;5069916;28;20037;-85
2023/12/31 09:00:57;;;;;;;188.30;74.57;;;;;;;-142.57;100.00;58340.72;5046966;28;20115;-84
2023/12/31 09:03:24;;;;;;;161.32;74.65;;;;;;;-142.57;100.00;58403.41;5017066;28;20035;-86
2023/12/31 09:05:53;;;;;;;151.70;76.00;;;;;;;-142.57;100.00;57999.03;5013976;28;20082;-85
2023/12/31 09:08:18;;;;;;;144.93;74.20;;;;;;;-142.57;100.00;57956.56;5014671;28;20663;-83
2023/12/31 09:10:45;;;;;;;202.90;74.28;;;;;;;-142.57;100.00;58083.94;5014671;28;20110;-84
2023/12/31 09:13:10;;;;;;;231.98;76.30;;;;;;;-142.57;100.00;58324.53;5015765;28;20606;-84
2023/12/31 09:15:36;;;;;;;172.48;74.53;;;;;;;-142.57;100.00;58265.91;5021840;28;20017;-83
2023/12/31 09:18:02;;;;;;;279.67;81.28;;;;;;;-142.57;100.00;58267.94;5057273;28;20052;-78
2023/12/31 09:20:28;;;;;;;209.25;78.55;;;;;;;-142.57;100.00;58354.88;5062205;28;20477;-83
2023/12/31 09:22:53;;;;;;;229.10;78.38;;;;;;;-142.57;100.00;58500.44;5081866;28;20201;-82
2023/12/31 09:25:20;;;;;;;186.60;79.55;;;;;;;-142.57;100.00;58472.13;5077978;28;20025;-79
2023/12/31 09:27:45;;;;;;;296.23;93.75;;;;;;;-142.57;100.00;58623.78;5082490;28;20079;-80
2023/12/31 09:30:11;;;;;;;258.20;87.35;;;;;;;-142.57;100.00;59495.38;5017049;28;20038;-83
2023/12/31 09:32:37;;;;;;;233.80;84.93;;;;;;;-142.57;100.00;59606.59;5015612;28;20036;-80
2023/12/31 09:35:03;;;;;;;214.52;84.20;;;;;;;-142.57;100.00;60083.94;5010504;28;20036;-83
2023/12/31 09:37:29;;;;;;;185.88;81.53;;;;;;;-142.57;100.00;59456.94;5043501;28;20119;-85
2023/12/31 09:39:54;;;;;;;158.57;78.55;;;;;;;-142.57;100.00;58991.81;5069055;28;20052;-82
2023/12/31 09:42:28;;;;;;;189.55;80.43;;;;;;;-142.57;100.00;58714.78;5059385;28;20045;-84
2023/12/31 09:44:55;;;;;;;167.00;77.35;;;;;;;-142.57;100.00;59044.38;5066587;28;20079;-82
2023/12/31 09:47:22;;;;;;;249.25;80.95;;;;;;;-142.57;100.00;59084.84;5079082;28;20040;-83
2023/12/31 09:49:48;;;;;;;176.68;80.97;;;;;;;-142.57;100.00;59746.16;5043094;28;20016;-82
2023/12/31 09:52:16;;;;;;;252.07;84.32;;;;;;;-142.57;100.00;59687.50;5053366;28;20404;-83
2023/12/31 09:54:42;;;;;;;206.50;80.95;;;;;;;-142.57;100.00;59770.44;5045569;28;20459;-80
2023/12/31 09:57:08;;;;;;;228.90;83.85;;;;;;;-142.57;100.00;59966.63;5080194;28;20031;-84
2023/12/31 09:59:35;;;;;;;308.70;89.75;;;;;;;-142.57;100.00;60464.25;5067247;28;20043;-82
2023/12/31 10:02:05;;;;;;;330.98;88.90;;;;;;;-142.57;100.00;60860.75;5066548;28;20037;-83
2023/12/31 10:04:31;;;;;;;199.18;87.03;;;;;;;-142.57;100.00;61111.66;5047390;28;20032;-83
2023/12/31 10:06:57;;;;;;;239.18;83.25;;;;;;;-142.57;100.00;60353.00;5045664;28;21381;-82
2023/12/31 10:09:30;;;;;;;233.10;88.28;;;;;;;-142.57;100.00;61439.44;5076022;28;21464;-81
2023/12/31 10:11:56;;;;;;;233.05;90.32;;;;;;;-142.57;100.00;61957.47;5069444;28;22149;-85
2023/12/31 10:14:22;;;;;;;243.77;86.75;;;;;;;-142.57;100.00;62623.31;5099855;28;20068;-82
2023/12/31 10:16:48;;;;;;;224.55;84.22;;;;;;;-142.57;100.00;62281.28;5076157;28;20036;-83
2023/12/31 10:19:17;;;;;;;228.40;84.82;;;;;;;-142.57;100.00;61860.34;5073888;28;20040;-82
2023/12/31 10:21:43;;;;;;;254.40;88.15;;;;;;;-142.57;100.00;62763.00;5064423;28;20036;-83
2023/12/31 10:24:09;;;;;;;223.38;85.07;;;;;;;-142.57;100.00;61326.13;5060674;28;20054;-82
2023/12/31 10:26:36;;;;;;;208.82;80.90;;;;;;;-142.57;100.00;60933.59;5067792;28;20396;-82
2023/12/31 10:29:04;;;;;;;202.20;81.97;;;;;;;-142.57;100.00;61164.25;5071834;28;20032;-82
2023/12/31 10:31:30;;;;;;;215.45;80.90;;;;;;;-142.57;100.00;61281.59;5071398;28;20036;-81
2023/12/31 10:34:16;;;;;;;203.20;79.75;;;;;;;-142.57;100.00;61427.28;5074653;28;20043;-85
2023/12/31 10:36:44;;;;;;;249.52;88.78;;;;;;;-142.57;100.00;61965.56;5037385;28;21605;-83
2023/12/31 10:39:10;;;;;;;248.02;91.65;;;;;;;-142.57;100.00;63459.34;5077363;28;20025;-79
2023/12/31 10:41:37;;;;;;;234.27;90.18;;;;;;;-142.57;100.00;64672.19;5065627;28;20501;-84
2023/12/31 10:44:10;;;;;;;215.90;89.25;;;;;;;-142.57;100.00;64955.72;5070859;28;20114;-83
2023/12/31 10:46:41;;;;;;;293.58;92.90;;;;;;;-142.57;100.00;63878.44;5077272;28;20032;-83